KVPSKTTS

Guest
Details From KVPS - Eglin Afb
To KTTS - Nasa Shuttle Landing Facility
Flight Number -
Tags Generated
Created
Modified
Stats Distance 323 nm / 598 km
Max Altitude 0 ft / 0 m
Waypoints 3
Social Downloads 0
Likes 0
Share VATSIM

Download

Looking for another format? Having issues loading an existing format? Contact us
Advertisement - Login to hide

Notes

Generated

Route

KVPS R0758 KTTS

ID Type Via Altitude Latitude Longitude Leg Dist Tot Dist Heading (true) Name
O KVPS APT - 0 ft / 0 m 30.47283˚ -86.51791˚ - 0 nm - -
R0758 FIX - 0 ft / 0 m 28.63275˚ -80.70606˚ 323 nm 323 nm 109° / 111° -
O KTTS APT - 0 ft / 0 m 28.63275˚ -80.70606˚ 0 nm 323 nm 0° / 180° -

Altitude Profile

Advertisement - Login to hide

Weather


0- 5 10 15 20 25 30 35+ Temperature / ° C

Clouds and Precipitation
Forecast for 2017-12-12 00:00 UTC. Updated 19 minutes ago

Ground ~20,000 ft ~40,000 ft Winds

KVPS

Details ICAO KVPS (VPS)
Name EGLIN AFB
Region United States
Timezone America/Chicago (UTC-6.0)
Stats Elevation 87 ft / 27 m (AMSL)
Location 30.483467° -86.525097°
Runways 2
Magnetic Variation 3.264° W

METAR

KVPS 112055Z 24008KT 10SM FEW250 17/03 A3014 RMK AO2A SLP213 T01710027 57020 $

Decode

TAF

TAF KVPS 111800Z 1118/1224 23006KT 9999 SCT250 QNH3018INS WND 27010G15KT AFT 1121 BECMG 1202/1203 24009KT 9999 FEW020 SCT250 QNH3020INS BECMG 1214/1215 33012G18KT 9999 SCT020 BKN250 QNH3010INS BECMG 1222/1223 33012KT 9999 FEW030 QNH3014INS TX19/1121Z TN01/1212Z FCST BY USAF WX MET TECH

Decode

Departure Runways

ID Width Length Bearing (true) Bearing (mag) Surface Threshold Offset Overrun Length
01 300 ft / 91 m 10,067 ft / 3,069 m 12.14° 15.40° Asphalt 0 ft / 0 m 750 ft / 229 m
12 300 ft / 91 m 11,999 ft / 3,657 m 119.79° 123.05° Asphalt 0 ft / 0 m 1,000 ft / 305 m
19 300 ft / 91 m 10,067 ft / 3,069 m 192.14° 195.40° Asphalt 0 ft / 0 m 500 ft / 152 m
30 300 ft / 91 m 11,999 ft / 3,657 m 299.81° 303.07° Asphalt 0 ft / 0 m 1,000 ft / 305 m

KTTS

Details ICAO KTTS
Name NASA Shuttle Landing Facility
Region United States
Timezone America/New_York (UTC-5.0)
Stats Elevation 10 ft / 3 m (AMSL)
Location 28.614891° -80.694371°
Runways 1
Magnetic Variation 6.814° W

METAR

KTTS 112058Z AUTO 31004KT 10SM CLR 16/04 A3015 RMK AO2 SLP214 T01580039 56015 $

Decode

TAF

Not found

Destination Runways

ID Width Length Bearing (true) Bearing (mag) Surface Threshold Offset Overrun Length
15 300 ft / 91 m 15,035 ft / 4,583 m 150.12° 156.93° Concrete 0 ft / 0 m 1,000 ft / 305 m
33 300 ft / 91 m 15,035 ft / 4,583 m 330.13° 336.94° Concrete 0 ft / 0 m 1,000 ft / 305 m

Popular Alternatives